sensor_id;sensor_type;location;lat;lon;timestamp;P1;durP1;ratioP1;P2;durP2;ratioP2
15616;SDS011;7908;51.688;7.130;2022-12-29T00:00:00;3.20;;;2.30;;
15616;SDS011;7908;51.688;7.130;2022-12-29T00:02:32;3.13;;;2.53;;
15616;SDS011;7908;51.688;7.130;2022-12-29T00:05:04;3.07;;;2.27;;
15616;SDS011;7908;51.688;7.130;2022-12-29T00:07:34;4.10;;;3.23;;
15616;SDS011;7908;51.688;7.130;2022-12-29T00:10:07;4.43;;;4.03;;
15616;SDS011;7908;51.688;7.130;2022-12-29T00:12:44;4.37;;;3.10;;
15616;SDS011;7908;51.688;7.130;2022-12-29T00:15:51;5.33;;;3.57;;
15616;SDS011;7908;51.688;7.130;2022-12-29T00:18:23;6.00;;;3.90;;
15616;SDS011;7908;51.688;7.130;2022-12-29T00:20:54;2.53;;;2.10;;
15616;SDS011;7908;51.688;7.130;2022-12-29T00:23:43;4.00;;;3.37;;
15616;SDS011;7908;51.688;7.130;2022-12-29T00:26:29;4.27;;;3.03;;
15616;SDS011;7908;51.688;7.130;2022-12-29T00:29:21;3.93;;;2.70;;
15616;SDS011;7908;51.688;7.130;2022-12-29T00:32:07;3.93;;;3.30;;
15616;SDS011;7908;51.688;7.130;2022-12-29T00:34:55;3.90;;;3.00;;
15616;SDS011;7908;51.688;7.130;2022-12-29T00:37:36;5.40;;;3.10;;
15616;SDS011;7908;51.688;7.130;2022-12-29T00:40:21;4.80;;;2.77;;
15616;SDS011;7908;51.688;7.130;2022-12-29T00:43:08;5.37;;;3.20;;
15616;SDS011;7908;51.688;7.130;2022-12-29T00:45:57;4.87;;;3.43;;
15616;SDS011;7908;51.688;7.130;2022-12-29T00:48:26;4.63;;;3.90;;
15616;SDS011;7908;51.688;7.130;2022-12-29T00:51:14;4.43;;;3.90;;
15616;SDS011;7908;51.688;7.130;2022-12-29T00:53:43;5.47;;;4.07;;
15616;SDS011;7908;51.688;7.130;2022-12-29T00:56:14;5.60;;;4.87;;
15616;SDS011;7908;51.688;7.130;2022-12-29T00:58:43;5.40;;;4.90;;
15616;SDS011;7908;51.688;7.130;2022-12-29T01:01:14;5.97;;;5.20;;
15616;SDS011;7908;51.688;7.130;2022-12-29T01:03:43;5.80;;;4.67;;
15616;SDS011;7908;51.688;7.130;2022-12-29T01:06:12;10.70;;;6.57;;
15616;SDS011;7908;51.688;7.130;2022-12-29T01:08:43;13.03;;;7.77;;
15616;SDS011;7908;51.688;7.130;2022-12-29T01:11:12;12.47;;;7.23;;
15616;SDS011;7908;51.688;7.130;2022-12-29T01:13:43;20.03;;;8.60;;
15616;SDS011;7908;51.688;7.130;2022-12-29T01:16:15;14.63;;;7.50;;
15616;SDS011;7908;51.688;7.130;2022-12-29T01:18:46;10.80;;;6.73;;
15616;SDS011;7908;51.688;7.130;2022-12-29T01:21:14;7.10;;;5.63;;
15616;SDS011;7908;51.688;7.130;2022-12-29T01:23:43;3.97;;;3.40;;
15616;SDS011;7908;51.688;7.130;2022-12-29T01:26:13;7.20;;;5.07;;
15616;SDS011;7908;51.688;7.130;2022-12-29T01:28:43;7.27;;;5.20;;
15616;SDS011;7908;51.688;7.130;2022-12-29T01:31:13;5.87;;;4.70;;
15616;SDS011;7908;51.688;7.130;2022-12-29T01:33:44;6.87;;;5.10;;
15616;SDS011;7908;51.688;7.130;2022-12-29T01:36:14;6.17;;;4.33;;
15616;SDS011;7908;51.688;7.130;2022-12-29T01:38:43;8.07;;;4.77;;
15616;SDS011;7908;51.688;7.130;2022-12-29T01:41:13;5.43;;;3.97;;
15616;SDS011;7908;51.688;7.130;2022-12-29T01:43:45;6.57;;;3.50;;
15616;SDS011;7908;51.688;7.130;2022-12-29T01:46:17;5.63;;;4.07;;
15616;SDS011;7908;51.688;7.130;2022-12-29T01:48:52;4.00;;;3.33;;
15616;SDS011;7908;51.688;7.130;2022-12-29T01:51:24;4.17;;;3.17;;
15616;SDS011;7908;51.688;7.130;2022-12-29T01:53:57;4.60;;;3.40;;
15616;SDS011;7908;51.688;7.130;2022-12-29T01:56:29;6.47;;;4.60;;
15616;SDS011;7908;51.688;7.130;2022-12-29T01:59:02;6.23;;;4.23;;
15616;SDS011;7908;51.688;7.130;2022-12-29T02:01:33;5.40;;;3.80;;
15616;SDS011;7908;51.688;7.130;2022-12-29T02:04:04;5.73;;;4.57;;
15616;SDS011;7908;51.688;7.130;2022-12-29T02:06:35;8.33;;;5.57;;
15616;SDS011;7908;51.688;7.130;2022-12-29T02:09:09;3.63;;;3.10;;
15616;SDS011;7908;51.688;7.130;2022-12-29T02:11:39;4.10;;;3.00;;
15616;SDS011;7908;51.688;7.130;2022-12-29T02:14:09;2.97;;;2.13;;
15616;SDS011;7908;51.688;7.130;2022-12-29T02:16:45;5.10;;;1.90;;
15616;SDS011;7908;51.688;7.130;2022-12-29T02:19:39;4.33;;;2.80;;
15616;SDS011;7908;51.688;7.130;2022-12-29T02:22:31;2.37;;;1.60;;
15616;SDS011;7908;51.688;7.130;2022-12-29T02:25:11;5.20;;;4.13;;
15616;SDS011;7908;51.688;7.130;2022-12-29T02:28:12;2.60;;;2.00;;
15616;SDS011;7908;51.688;7.130;2022-12-29T02:31:13;4.17;;;3.27;;
15616;SDS011;7908;51.688;7.130;2022-12-29T02:33:50;4.03;;;2.40;;
15616;SDS011;7908;51.688;7.130;2022-12-29T02:36:28;2.53;;;1.50;;
15616;SDS011;7908;51.688;7.130;2022-12-29T02:39:10;3.10;;;2.10;;
15616;SDS011;7908;51.688;7.130;2022-12-29T02:41:49;2.70;;;1.50;;
15616;SDS011;7908;51.688;7.130;2022-12-29T02:44:27;5.03;;;2.10;;
15616;SDS011;7908;51.688;7.130;2022-12-29T02:47:06;4.97;;;2.10;;
15616;SDS011;7908;51.688;7.130;2022-12-29T02:49:40;4.07;;;1.77;;
15616;SDS011;7908;51.688;7.130;2022-12-29T02:52:16;3.40;;;1.67;;
15616;SDS011;7908;51.688;7.130;2022-12-29T02:54:52;3.03;;;2.27;;
15616;SDS011;7908;51.688;7.130;2022-12-29T02:57:28;2.20;;;1.43;;
15616;SDS011;7908;51.688;7.130;2022-12-29T03:00:01;4.37;;;1.50;;
15616;SDS011;7908;51.688;7.130;2022-12-29T03:02:42;3.37;;;1.60;;
15616;SDS011;7908;51.688;7.130;2022-12-29T03:08:30;4.40;;;1.40;;
15616;SDS011;7908;51.688;7.130;2022-12-29T03:11:06;2.90;;;1.87;;
15616;SDS011;7908;51.688;7.130;2022-12-29T03:13:59;2.97;;;1.00;;
15616;SDS011;7908;51.688;7.130;2022-12-29T03:16:50;2.53;;;0.93;;
15616;SDS011;7908;51.688;7.130;2022-12-29T03:19:26;2.90;;;1.50;;
15616;SDS011;7908;51.688;7.130;2022-12-29T03:22:00;3.40;;;1.40;;
15616;SDS011;7908;51.688;7.130;2022-12-29T03:24:49;2.30;;;0.97;;
15616;SDS011;7908;51.688;7.130;2022-12-29T03:27:22;3.90;;;1.53;;
15616;SDS011;7908;51.688;7.130;2022-12-29T03:29:57;3.00;;;1.40;;
15616;SDS011;7908;51.688;7.130;2022-12-29T03:32:31;4.23;;;1.60;;
15616;SDS011;7908;51.688;7.130;2022-12-29T03:35:06;5.57;;;2.10;;
15616;SDS011;7908;51.688;7.130;2022-12-29T03:37:41;5.37;;;1.70;;
15616;SDS011;7908;51.688;7.130;2022-12-29T03:40:13;3.50;;;1.67;;
15616;SDS011;7908;51.688;7.130;2022-12-29T03:42:43;2.47;;;1.23;;
15616;SDS011;7908;51.688;7.130;2022-12-29T03:45:13;3.03;;;1.30;;
15616;SDS011;7908;51.688;7.130;2022-12-29T03:47:44;6.60;;;1.57;;
15616;SDS011;7908;51.688;7.130;2022-12-29T03:50:14;3.73;;;1.67;;
15616;SDS011;7908;51.688;7.130;2022-12-29T03:52:43;2.77;;;1.43;;
15616;SDS011;7908;51.688;7.130;2022-12-29T03:55:12;5.53;;;1.40;;
15616;SDS011;7908;51.688;7.130;2022-12-29T03:57:43;4.27;;;1.60;;
15616;SDS011;7908;51.688;7.130;2022-12-29T04:00:12;6.33;;;1.90;;
15616;SDS011;7908;51.688;7.130;2022-12-29T04:02:44;3.73;;;1.70;;
15616;SDS011;7908;51.688;7.130;2022-12-29T04:05:15;3.33;;;1.80;;
15616;SDS011;7908;51.688;7.130;2022-12-29T04:07:44;4.93;;;1.80;;
15616;SDS011;7908;51.688;7.130;2022-12-29T04:10:12;3.67;;;1.70;;
15616;SDS011;7908;51.688;7.130;2022-12-29T04:12:41;4.07;;;2.47;;
15616;SDS011;7908;51.688;7.130;2022-12-29T04:15:12;3.90;;;3.10;;
15616;SDS011;7908;51.688;7.130;2022-12-29T04:17:41;3.73;;;2.20;;
15616;SDS011;7908;51.688;7.130;2022-12-29T04:20:10;3.60;;;1.60;;
15616;SDS011;7908;51.688;7.130;2022-12-29T04:22:59;7.10;;;1.90;;
15616;SDS011;7908;51.688;7.130;2022-12-29T04:25:28;3.63;;;1.50;;
15616;SDS011;7908;51.688;7.130;2022-12-29T04:27:59;2.23;;;1.40;;
15616;SDS011;7908;51.688;7.130;2022-12-29T04:30:29;1.80;;;1.20;;
15616;SDS011;7908;51.688;7.130;2022-12-29T04:32:58;3.23;;;1.67;;
15616;SDS011;7908;51.688;7.130;2022-12-29T04:35:27;3.07;;;1.40;;
15616;SDS011;7908;51.688;7.130;2022-12-29T04:37:55;3.73;;;1.20;;
15616;SDS011;7908;51.688;7.130;2022-12-29T04:40:25;4.60;;;1.47;;
15616;SDS011;7908;51.688;7.130;2022-12-29T04:42:54;3.90;;;1.90;;
15616;SDS011;7908;51.688;7.130;2022-12-29T04:45:23;9.00;;;4.97;;
15616;SDS011;7908;51.688;7.130;2022-12-29T04:47:52;9.83;;;5.93;;
15616;SDS011;7908;51.688;7.130;2022-12-29T04:50:21;5.40;;;2.67;;
15616;SDS011;7908;51.688;7.130;2022-12-29T04:52:51;3.37;;;2.10;;
15616;SDS011;7908;51.688;7.130;2022-12-29T04:55:20;2.53;;;1.70;;
15616;SDS011;7908;51.688;7.130;2022-12-29T04:57:50;1.67;;;1.00;;
15616;SDS011;7908;51.688;7.130;2022-12-29T05:00:20;4.47;;;1.90;;
15616;SDS011;7908;51.688;7.130;2022-12-29T05:02:49;9.07;;;4.40;;
15616;SDS011;7908;51.688;7.130;2022-12-29T05:05:19;5.17;;;3.97;;
15616;SDS011;7908;51.688;7.130;2022-12-29T05:07:50;3.53;;;1.93;;
15616;SDS011;7908;51.688;7.130;2022-12-29T05:10:18;4.83;;;2.00;;
15616;SDS011;7908;51.688;7.130;2022-12-29T05:12:47;3.70;;;1.57;;
15616;SDS011;7908;51.688;7.130;2022-12-29T05:15:17;4.40;;;1.13;;
15616;SDS011;7908;51.688;7.130;2022-12-29T05:20:45;3.13;;;0.80;;
15616;SDS011;7908;51.688;7.130;2022-12-29T05:23:15;2.90;;;0.70;;
15616;SDS011;7908;51.688;7.130;2022-12-29T05:25:44;2.93;;;1.23;;
15616;SDS011;7908;51.688;7.130;2022-12-29T05:28:13;3.90;;;0.60;;
15616;SDS011;7908;51.688;7.130;2022-12-29T05:30:46;2.10;;;0.53;;
15616;SDS011;7908;51.688;7.130;2022-12-29T05:33:16;2.50;;;0.60;;
15616;SDS011;7908;51.688;7.130;2022-12-29T05:35:45;3.60;;;0.80;;
15616;SDS011;7908;51.688;7.130;2022-12-29T05:38:14;1.97;;;0.87;;
15616;SDS011;7908;51.688;7.130;2022-12-29T05:40:44;1.87;;;0.80;;
15616;SDS011;7908;51.688;7.130;2022-12-29T05:43:13;4.93;;;2.70;;
15616;SDS011;7908;51.688;7.130;2022-12-29T05:45:42;2.87;;;0.80;;
15616;SDS011;7908;51.688;7.130;2022-12-29T05:48:12;2.47;;;0.63;;
15616;SDS011;7908;51.688;7.130;2022-12-29T05:50:40;3.03;;;0.80;;
15616;SDS011;7908;51.688;7.130;2022-12-29T05:53:10;4.33;;;1.10;;
15616;SDS011;7908;51.688;7.130;2022-12-29T05:55:39;3.17;;;0.90;;
15616;SDS011;7908;51.688;7.130;2022-12-29T05:58:14;4.57;;;1.40;;
15616;SDS011;7908;51.688;7.130;2022-12-29T06:00:43;3.60;;;1.07;;
15616;SDS011;7908;51.688;7.130;2022-12-29T06:03:14;3.57;;;1.30;;
15616;SDS011;7908;51.688;7.130;2022-12-29T06:05:44;3.80;;;1.23;;
15616;SDS011;7908;51.688;7.130;2022-12-29T06:08:13;4.27;;;1.93;;
15616;SDS011;7908;51.688;7.130;2022-12-29T06:10:42;4.27;;;1.67;;
15616;SDS011;7908;51.688;7.130;2022-12-29T06:13:11;3.30;;;1.70;;
15616;SDS011;7908;51.688;7.130;2022-12-29T06:15:40;3.23;;;1.70;;
15616;SDS011;7908;51.688;7.130;2022-12-29T06:18:10;4.97;;;1.53;;
15616;SDS011;7908;51.688;7.130;2022-12-29T06:20:46;6.67;;;1.80;;
15616;SDS011;7908;51.688;7.130;2022-12-29T06:23:15;4.43;;;2.10;;
15616;SDS011;7908;51.688;7.130;2022-12-29T06:25:46;4.40;;;1.70;;
15616;SDS011;7908;51.688;7.130;2022-12-29T06:28:15;5.93;;;1.83;;
15616;SDS011;7908;51.688;7.130;2022-12-29T06:30:44;9.73;;;2.27;;
15616;SDS011;7908;51.688;7.130;2022-12-29T06:33:14;5.37;;;1.77;;
15616;SDS011;7908;51.688;7.130;2022-12-29T06:35:43;8.50;;;2.10;;
15616;SDS011;7908;51.688;7.130;2022-12-29T06:38:14;6.77;;;1.40;;
15616;SDS011;7908;51.688;7.130;2022-12-29T06:40:44;5.47;;;1.70;;
15616;SDS011;7908;51.688;7.130;2022-12-29T06:43:13;7.53;;;1.50;;
15616;SDS011;7908;51.688;7.130;2022-12-29T06:45:42;7.07;;;1.10;;
15616;SDS011;7908;51.688;7.130;2022-12-29T06:48:15;7.43;;;1.30;;
15616;SDS011;7908;51.688;7.130;2022-12-29T06:50:44;9.23;;;1.40;;
15616;SDS011;7908;51.688;7.130;2022-12-29T06:53:17;5.93;;;1.43;;
15616;SDS011;7908;51.688;7.130;2022-12-29T06:55:46;8.80;;;2.70;;
15616;SDS011;7908;51.688;7.130;2022-12-29T06:58:20;8.87;;;1.30;;
15616;SDS011;7908;51.688;7.130;2022-12-29T07:00:49;10.47;;;4.93;;
15616;SDS011;7908;51.688;7.130;2022-12-29T07:03:22;7.93;;;2.47;;
15616;SDS011;7908;51.688;7.130;2022-12-29T07:05:51;6.90;;;1.73;;
15616;SDS011;7908;51.688;7.130;2022-12-29T07:08:22;5.17;;;2.10;;
15616;SDS011;7908;51.688;7.130;2022-12-29T07:10:52;9.93;;;1.50;;
15616;SDS011;7908;51.688;7.130;2022-12-29T07:13:21;7.53;;;2.77;;
15616;SDS011;7908;51.688;7.130;2022-12-29T07:15:50;7.33;;;2.60;;
15616;SDS011;7908;51.688;7.130;2022-12-29T07:18:20;7.37;;;2.43;;
15616;SDS011;7908;51.688;7.130;2022-12-29T07:20:48;7.13;;;1.60;;
15616;SDS011;7908;51.688;7.130;2022-12-29T07:23:18;7.47;;;3.50;;
15616;SDS011;7908;51.688;7.130;2022-12-29T07:25:48;3.00;;;0.90;;
15616;SDS011;7908;51.688;7.130;2022-12-29T07:28:17;5.90;;;1.30;;
15616;SDS011;7908;51.688;7.130;2022-12-29T07:30:46;4.10;;;1.00;;
15616;SDS011;7908;51.688;7.130;2022-12-29T07:33:15;9.93;;;3.57;;
15616;SDS011;7908;51.688;7.130;2022-12-29T07:35:45;15.83;;;5.23;;
15616;SDS011;7908;51.688;7.130;2022-12-29T07:38:15;11.17;;;3.30;;
15616;SDS011;7908;51.688;7.130;2022-12-29T07:40:45;7.37;;;2.47;;
15616;SDS011;7908;51.688;7.130;2022-12-29T07:43:19;5.77;;;1.70;;
15616;SDS011;7908;51.688;7.130;2022-12-29T07:45:49;8.43;;;3.80;;
15616;SDS011;7908;51.688;7.130;2022-12-29T07:48:21;6.07;;;1.87;;
15616;SDS011;7908;51.688;7.130;2022-12-29T07:50:52;4.40;;;1.90;;
15616;SDS011;7908;51.688;7.130;2022-12-29T07:53:21;11.30;;;4.60;;
15616;SDS011;7908;51.688;7.130;2022-12-29T07:55:55;11.00;;;3.20;;
15616;SDS011;7908;51.688;7.130;2022-12-29T07:58:25;15.83;;;6.00;;
15616;SDS011;7908;51.688;7.130;2022-12-29T08:00:54;8.70;;;2.70;;
15616;SDS011;7908;51.688;7.130;2022-12-29T08:03:26;11.87;;;3.67;;
15616;SDS011;7908;51.688;7.130;2022-12-29T08:05:56;8.40;;;3.63;;
15616;SDS011;7908;51.688;7.130;2022-12-29T08:08:29;11.60;;;4.40;;
15616;SDS011;7908;51.688;7.130;2022-12-29T08:11:10;10.43;;;2.20;;
15616;SDS011;7908;51.688;7.130;2022-12-29T08:13:45;9.50;;;2.60;;
15616;SDS011;7908;51.688;7.130;2022-12-29T08:16:19;9.37;;;2.50;;
15616;SDS011;7908;51.688;7.130;2022-12-29T08:18:51;7.70;;;2.43;;
15616;SDS011;7908;51.688;7.130;2022-12-29T08:21:27;10.97;;;2.60;;
15616;SDS011;7908;51.688;7.130;2022-12-29T08:24:02;9.40;;;2.83;;
15616;SDS011;7908;51.688;7.130;2022-12-29T08:26:37;7.37;;;2.93;;
15616;SDS011;7908;51.688;7.130;2022-12-29T08:29:07;5.37;;;1.93;;
15616;SDS011;7908;51.688;7.130;2022-12-29T08:31:45;7.63;;;3.87;;
15616;SDS011;7908;51.688;7.130;2022-12-29T08:34:19;9.13;;;3.13;;
15616;SDS011;7908;51.688;7.130;2022-12-29T08:36:56;9.23;;;2.47;;
15616;SDS011;7908;51.688;7.130;2022-12-29T08:39:56;5.73;;;1.60;;
15616;SDS011;7908;51.688;7.130;2022-12-29T08:42:37;7.30;;;2.40;;
15616;SDS011;7908;51.688;7.130;2022-12-29T08:45:07;7.03;;;1.60;;
15616;SDS011;7908;51.688;7.130;2022-12-29T08:47:38;7.07;;;2.07;;
15616;SDS011;7908;51.688;7.130;2022-12-29T08:50:11;9.70;;;2.67;;
15616;SDS011;7908;51.688;7.130;2022-12-29T08:52:45;7.17;;;2.10;;
15616;SDS011;7908;51.688;7.130;2022-12-29T08:55:26;8.83;;;2.20;;
15616;SDS011;7908;51.688;7.130;2022-12-29T08:58:11;12.67;;;4.33;;
15616;SDS011;7908;51.688;7.130;2022-12-29T09:00:51;9.47;;;2.53;;
15616;SDS011;7908;51.688;7.130;2022-12-29T09:03:45;7.10;;;1.77;;
15616;SDS011;7908;51.688;7.130;2022-12-29T09:06:43;9.80;;;3.60;;
15616;SDS011;7908;51.688;7.130;2022-12-29T09:09:13;5.80;;;2.53;;
15616;SDS011;7908;51.688;7.130;2022-12-29T09:11:45;10.90;;;2.93;;
15616;SDS011;7908;51.688;7.130;2022-12-29T09:14:19;6.47;;;1.57;;
15616;SDS011;7908;51.688;7.130;2022-12-29T09:16:55;8.40;;;3.33;;
15616;SDS011;7908;51.688;7.130;2022-12-29T09:19:47;10.30;;;2.60;;
15616;SDS011;7908;51.688;7.130;2022-12-29T09:22:20;5.10;;;1.80;;
15616;SDS011;7908;51.688;7.130;2022-12-29T09:24:56;9.63;;;1.90;;
15616;SDS011;7908;51.688;7.130;2022-12-29T09:27:25;9.00;;;1.80;;
15616;SDS011;7908;51.688;7.130;2022-12-29T09:30:06;9.83;;;1.83;;
15616;SDS011;7908;51.688;7.130;2022-12-29T09:32:46;6.60;;;1.30;;
15616;SDS011;7908;51.688;7.130;2022-12-29T09:35:25;7.20;;;1.67;;
15616;SDS011;7908;51.688;7.130;2022-12-29T09:37:55;9.53;;;1.67;;
15616;SDS011;7908;51.688;7.130;2022-12-29T09:40:26;8.13;;;1.60;;
15616;SDS011;7908;51.688;7.130;2022-12-29T09:43:11;6.10;;;1.50;;
15616;SDS011;7908;51.688;7.130;2022-12-29T09:46:02;9.00;;;1.70;;
15616;SDS011;7908;51.688;7.130;2022-12-29T09:48:45;9.03;;;1.90;;
15616;SDS011;7908;51.688;7.130;2022-12-29T09:51:25;7.53;;;2.70;;
15616;SDS011;7908;51.688;7.130;2022-12-29T09:54:21;9.37;;;2.20;;
15616;SDS011;7908;51.688;7.130;2022-12-29T09:57:03;9.70;;;1.87;;
15616;SDS011;7908;51.688;7.130;2022-12-29T09:59:43;9.13;;;1.67;;
15616;SDS011;7908;51.688;7.130;2022-12-29T10:02:33;5.53;;;1.50;;
15616;SDS011;7908;51.688;7.130;2022-12-29T10:05:20;5.73;;;1.87;;
15616;SDS011;7908;51.688;7.130;2022-12-29T10:11:12;6.80;;;1.53;;
15616;SDS011;7908;51.688;7.130;2022-12-29T10:14:09;9.63;;;1.63;;
15616;SDS011;7908;51.688;7.130;2022-12-29T10:17:00;7.23;;;1.70;;
15616;SDS011;7908;51.688;7.130;2022-12-29T10:19:50;7.27;;;1.60;;
15616;SDS011;7908;51.688;7.130;2022-12-29T10:22:53;8.83;;;1.77;;
15616;SDS011;7908;51.688;7.130;2022-12-29T10:25:38;8.40;;;1.93;;
15616;SDS011;7908;51.688;7.130;2022-12-29T10:28:15;6.50;;;1.60;;
15616;SDS011;7908;51.688;7.130;2022-12-29T10:30:58;6.73;;;1.63;;
15616;SDS011;7908;51.688;7.130;2022-12-29T10:33:40;6.47;;;1.60;;
15616;SDS011;7908;51.688;7.130;2022-12-29T10:36:30;5.20;;;1.53;;
15616;SDS011;7908;51.688;7.130;2022-12-29T10:39:22;5.10;;;1.30;;
15616;SDS011;7908;51.688;7.130;2022-12-29T10:42:05;7.07;;;1.50;;
15616;SDS011;7908;51.688;7.130;2022-12-29T10:44:56;4.47;;;1.70;;
15616;SDS011;7908;51.688;7.130;2022-12-29T10:47:50;7.53;;;1.80;;
15616;SDS011;7908;51.688;7.130;2022-12-29T10:50:30;7.90;;;1.33;;
15616;SDS011;7908;51.688;7.130;2022-12-29T10:53:22;4.63;;;1.70;;
15616;SDS011;7908;51.688;7.130;2022-12-29T10:56:02;5.87;;;1.40;;
15616;SDS011;7908;51.688;7.130;2022-12-29T10:58:49;5.83;;;1.27;;
15616;SDS011;7908;51.688;7.130;2022-12-29T11:01:47;6.00;;;1.10;;
15616;SDS011;7908;51.688;7.130;2022-12-29T11:04:42;5.67;;;1.23;;
15616;SDS011;7908;51.688;7.130;2022-12-29T11:07:37;7.10;;;1.53;;
15616;SDS011;7908;51.688;7.130;2022-12-29T11:10:28;6.37;;;1.60;;
15616;SDS011;7908;51.688;7.130;2022-12-29T11:13:20;4.77;;;1.23;;
15616;SDS011;7908;51.688;7.130;2022-12-29T11:16:07;10.17;;;1.70;;
15616;SDS011;7908;51.688;7.130;2022-12-29T11:19:28;5.50;;;1.23;;
15616;SDS011;7908;51.688;7.130;2022-12-29T11:22:12;7.37;;;1.33;;
15616;SDS011;7908;51.688;7.130;2022-12-29T11:25:06;9.20;;;1.90;;
15616;SDS011;7908;51.688;7.130;2022-12-29T11:28:00;9.20;;;1.93;;
15616;SDS011;7908;51.688;7.130;2022-12-29T11:31:05;4.97;;;1.23;;
15616;SDS011;7908;51.688;7.130;2022-12-29T11:33:43;8.63;;;1.37;;
15616;SDS011;7908;51.688;7.130;2022-12-29T11:36:24;7.00;;;1.63;;
15616;SDS011;7908;51.688;7.130;2022-12-29T11:39:06;6.03;;;1.37;;
15616;SDS011;7908;51.688;7.130;2022-12-29T11:41:57;7.87;;;1.80;;
15616;SDS011;7908;51.688;7.130;2022-12-29T11:47:55;4.60;;;1.40;;
15616;SDS011;7908;51.688;7.130;2022-12-29T11:50:37;8.27;;;1.50;;
15616;SDS011;7908;51.688;7.130;2022-12-29T11:53:32;5.23;;;1.30;;
15616;SDS011;7908;51.688;7.130;2022-12-29T11:56:32;6.53;;;2.00;;
15616;SDS011;7908;51.688;7.130;2022-12-29T12:02:34;9.00;;;1.37;;
15616;SDS011;7908;51.688;7.130;2022-12-29T12:05:19;7.27;;;1.80;;
15616;SDS011;7908;51.688;7.130;2022-12-29T12:08:22;7.00;;;1.67;;
15616;SDS011;7908;51.688;7.130;2022-12-29T12:11:07;7.67;;;1.70;;
15616;SDS011;7908;51.688;7.130;2022-12-29T12:13:46;3.37;;;1.60;;
15616;SDS011;7908;51.688;7.130;2022-12-29T12:16:37;7.50;;;1.60;;
15616;SDS011;7908;51.688;7.130;2022-12-29T12:19:28;5.97;;;1.53;;
15616;SDS011;7908;51.688;7.130;2022-12-29T12:22:16;9.20;;;1.60;;
15616;SDS011;7908;51.688;7.130;2022-12-29T12:28:11;8.93;;;1.73;;
15616;SDS011;7908;51.688;7.130;2022-12-29T12:30:56;10.63;;;1.90;;
15616;SDS011;7908;51.688;7.130;2022-12-29T12:33:33;9.33;;;2.00;;
15616;SDS011;7908;51.688;7.130;2022-12-29T12:36:25;10.23;;;1.87;;
15616;SDS011;7908;51.688;7.130;2022-12-29T12:39:32;9.17;;;1.73;;
15616;SDS011;7908;51.688;7.130;2022-12-29T12:42:26;11.83;;;1.93;;
15616;SDS011;7908;51.688;7.130;2022-12-29T12:45:37;10.17;;;2.13;;
15616;SDS011;7908;51.688;7.130;2022-12-29T12:48:32;8.13;;;1.77;;
15616;SDS011;7908;51.688;7.130;2022-12-29T12:51:32;6.23;;;1.70;;
15616;SDS011;7908;51.688;7.130;2022-12-29T12:54:18;6.57;;;2.03;;
15616;SDS011;7908;51.688;7.130;2022-12-29T12:57:14;9.33;;;1.60;;
15616;SDS011;7908;51.688;7.130;2022-12-29T13:00:00;6.50;;;1.57;;
15616;SDS011;7908;51.688;7.130;2022-12-29T13:02:38;9.07;;;1.67;;
15616;SDS011;7908;51.688;7.130;2022-12-29T13:05:25;7.03;;;1.53;;
15616;SDS011;7908;51.688;7.130;2022-12-29T13:08:47;8.73;;;1.77;;
15616;SDS011;7908;51.688;7.130;2022-12-29T13:11:39;5.07;;;1.20;;
15616;SDS011;7908;51.688;7.130;2022-12-29T13:14:52;8.63;;;1.50;;
15616;SDS011;7908;51.688;7.130;2022-12-29T13:17:44;8.93;;;2.13;;
15616;SDS011;7908;51.688;7.130;2022-12-29T13:20:34;6.27;;;1.30;;
15616;SDS011;7908;51.688;7.130;2022-12-29T13:23:24;6.90;;;1.73;;
15616;SDS011;7908;51.688;7.130;2022-12-29T13:26:17;10.03;;;1.80;;
15616;SDS011;7908;51.688;7.130;2022-12-29T13:29:04;7.60;;;2.50;;
15616;SDS011;7908;51.688;7.130;2022-12-29T13:32:05;9.13;;;2.10;;
15616;SDS011;7908;51.688;7.130;2022-12-29T13:35:10;9.63;;;2.47;;
15616;SDS011;7908;51.688;7.130;2022-12-29T13:37:56;6.90;;;1.60;;
15616;SDS011;7908;51.688;7.130;2022-12-29T13:40:37;7.20;;;1.83;;
15616;SDS011;7908;51.688;7.130;2022-12-29T13:43:26;7.43;;;1.87;;
15616;SDS011;7908;51.688;7.130;2022-12-29T13:46:03;8.63;;;2.13;;
15616;SDS011;7908;51.688;7.130;2022-12-29T13:48:48;7.03;;;1.40;;
15616;SDS011;7908;51.688;7.130;2022-12-29T13:51:36;12.80;;;3.30;;
15616;SDS011;7908;51.688;7.130;2022-12-29T13:54:17;6.00;;;2.27;;
15616;SDS011;7908;51.688;7.130;2022-12-29T13:57:39;6.20;;;1.90;;
15616;SDS011;7908;51.688;7.130;2022-12-29T14:00:42;6.83;;;1.67;;
15616;SDS011;7908;51.688;7.130;2022-12-29T14:03:39;7.67;;;1.53;;
15616;SDS011;7908;51.688;7.130;2022-12-29T14:06:23;7.67;;;1.70;;
15616;SDS011;7908;51.688;7.130;2022-12-29T14:08:55;7.03;;;1.70;;
15616;SDS011;7908;51.688;7.130;2022-12-29T14:11:43;7.17;;;2.00;;
15616;SDS011;7908;51.688;7.130;2022-12-29T14:14:41;12.47;;;1.87;;
15616;SDS011;7908;51.688;7.130;2022-12-29T14:17:23;9.80;;;2.17;;
15616;SDS011;7908;51.688;7.130;2022-12-29T14:20:17;5.50;;;1.27;;
15616;SDS011;7908;51.688;7.130;2022-12-29T14:22:55;4.93;;;1.23;;
15616;SDS011;7908;51.688;7.130;2022-12-29T14:28:35;6.37;;;1.87;;
15616;SDS011;7908;51.688;7.130;2022-12-29T14:34:48;5.67;;;1.20;;
15616;SDS011;7908;51.688;7.130;2022-12-29T14:38:15;7.13;;;1.57;;
15616;SDS011;7908;51.688;7.130;2022-12-29T14:41:17;7.53;;;2.10;;
15616;SDS011;7908;51.688;7.130;2022-12-29T14:46:58;5.87;;;1.60;;
15616;SDS011;7908;51.688;7.130;2022-12-29T14:49:43;7.67;;;1.90;;
15616;SDS011;7908;51.688;7.130;2022-12-29T14:52:59;7.07;;;1.87;;
15616;SDS011;7908;51.688;7.130;2022-12-29T14:55:56;6.80;;;2.90;;
15616;SDS011;7908;51.688;7.130;2022-12-29T14:58:55;11.13;;;5.23;;
15616;SDS011;7908;51.688;7.130;2022-12-29T15:01:45;10.90;;;3.33;;
15616;SDS011;7908;51.688;7.130;2022-12-29T15:04:30;10.87;;;4.90;;
15616;SDS011;7908;51.688;7.130;2022-12-29T15:07:25;8.90;;;3.57;;
15616;SDS011;7908;51.688;7.130;2022-12-29T15:10:19;9.83;;;4.57;;
15616;SDS011;7908;51.688;7.130;2022-12-29T15:13:14;11.07;;;5.83;;
15616;SDS011;7908;51.688;7.130;2022-12-29T15:15:59;8.40;;;4.43;;
15616;SDS011;7908;51.688;7.130;2022-12-29T15:18:51;8.30;;;2.63;;
15616;SDS011;7908;51.688;7.130;2022-12-29T15:21:54;8.13;;;2.87;;
15616;SDS011;7908;51.688;7.130;2022-12-29T15:24:57;8.93;;;2.00;;
15616;SDS011;7908;51.688;7.130;2022-12-29T15:27:35;6.50;;;1.80;;
15616;SDS011;7908;51.688;7.130;2022-12-29T15:30:23;4.63;;;1.53;;
15616;SDS011;7908;51.688;7.130;2022-12-29T15:33:20;6.50;;;1.53;;
15616;SDS011;7908;51.688;7.130;2022-12-29T15:36:11;5.37;;;1.60;;
15616;SDS011;7908;51.688;7.130;2022-12-29T15:38:58;4.23;;;1.70;;
15616;SDS011;7908;51.688;7.130;2022-12-29T15:41:50;7.27;;;2.20;;
15616;SDS011;7908;51.688;7.130;2022-12-29T15:44:34;9.40;;;2.20;;
15616;SDS011;7908;51.688;7.130;2022-12-29T15:47:36;6.00;;;1.80;;
15616;SDS011;7908;51.688;7.130;2022-12-29T15:50:27;6.00;;;2.00;;
15616;SDS011;7908;51.688;7.130;2022-12-29T15:53:27;7.67;;;3.23;;
15616;SDS011;7908;51.688;7.130;2022-12-29T15:56:19;5.33;;;2.50;;
15616;SDS011;7908;51.688;7.130;2022-12-29T15:59:18;9.47;;;2.70;;
15616;SDS011;7908;51.688;7.130;2022-12-29T16:02:10;6.77;;;2.10;;
15616;SDS011;7908;51.688;7.130;2022-12-29T16:04:49;11.80;;;3.27;;
15616;SDS011;7908;51.688;7.130;2022-12-29T16:07:56;7.47;;;2.83;;
15616;SDS011;7908;51.688;7.130;2022-12-29T16:10:48;6.77;;;2.07;;
15616;SDS011;7908;51.688;7.130;2022-12-29T16:13:36;8.93;;;3.83;;
15616;SDS011;7908;51.688;7.130;2022-12-29T16:16:28;8.00;;;3.03;;
15616;SDS011;7908;51.688;7.130;2022-12-29T16:19:18;5.10;;;2.00;;
15616;SDS011;7908;51.688;7.130;2022-12-29T16:22:01;6.40;;;2.30;;
15616;SDS011;7908;51.688;7.130;2022-12-29T16:24:48;5.27;;;1.80;;
15616;SDS011;7908;51.688;7.130;2022-12-29T16:27:42;10.10;;;2.07;;
15616;SDS011;7908;51.688;7.130;2022-12-29T16:30:36;8.27;;;2.37;;
15616;SDS011;7908;51.688;7.130;2022-12-29T16:33:35;8.73;;;2.73;;
15616;SDS011;7908;51.688;7.130;2022-12-29T16:36:28;6.90;;;1.77;;
15616;SDS011;7908;51.688;7.130;2022-12-29T16:39:19;6.47;;;2.23;;
15616;SDS011;7908;51.688;7.130;2022-12-29T16:51:50;9.77;;;2.40;;
15616;SDS011;7908;51.688;7.130;2022-12-29T16:54:38;8.07;;;1.87;;
15616;SDS011;7908;51.688;7.130;2022-12-29T16:57:15;8.47;;;2.30;;